createdAt,value
2019-04-27T00:00:45.548Z,61.38
2019-04-27T00:03:06.131Z,61.39
2019-04-27T00:05:35.463Z,60.96
2019-04-27T00:07:56.235Z,60.75
2019-04-27T00:10:05.593Z,60.59
2019-04-27T00:12:22.499Z,60.27
2019-04-27T00:14:34.181Z,60.26
2019-04-27T00:16:56.756Z,59.96
2019-04-27T00:19:18.336Z,59.86
2019-04-27T00:21:34.058Z,59.57
2019-04-27T00:23:45.028Z,59.39
2019-04-27T00:25:55.604Z,59.14
2019-04-27T00:28:05.531Z,59.00
2019-04-27T00:30:17.494Z,58.82
2019-04-27T00:32:26.651Z,58.79
2019-04-27T00:34:38.818Z,58.74
2019-04-27T00:37:03.573Z,58.87
2019-04-27T00:39:36.509Z,59.00
2019-04-27T00:41:50.127Z,59.33
2019-04-27T00:44:04.292Z,59.82
2019-04-27T00:46:25.550Z,59.99
2019-04-27T00:48:33.338Z,60.35
2019-04-27T00:50:44.587Z,60.49
2019-04-27T00:52:53.704Z,60.73
2019-04-27T00:55:03.471Z,60.86
2019-04-27T00:57:14.752Z,61.01
2019-04-27T00:59:34.651Z,60.83
2019-04-27T01:01:47.320Z,61.02
2019-04-27T01:04:05.660Z,61.08
2019-04-27T01:06:19.964Z,61.10
2019-04-27T01:08:29.261Z,61.19
2019-04-27T01:10:40.783Z,61.49
2019-04-27T01:12:55.487Z,61.93
2019-04-27T01:15:13.563Z,62.18
2019-04-27T01:17:23.556Z,62.35
2019-04-27T01:19:36.922Z,62.63
2019-04-27T01:21:49.696Z,63.12
2019-04-27T01:24:00.624Z,63.67
2019-04-27T01:26:24.694Z,63.65
2019-04-27T01:28:45.246Z,63.96
2019-04-27T01:30:58.899Z,64.09
2019-04-27T01:33:12.051Z,64.22
2019-04-27T01:35:23.195Z,64.37
2019-04-27T01:37:34.062Z,64.50
2019-04-27T01:39:43.618Z,64.73
2019-04-27T01:41:56.831Z,64.99
2019-04-27T01:44:09.515Z,65.29
2019-04-27T01:46:19.571Z,65.68
2019-04-27T01:48:30.536Z,65.91
2019-04-27T01:50:39.609Z,65.97
2019-04-27T01:52:50.395Z,66.06
2019-04-27T01:55:00.303Z,66.18
2019-04-27T01:57:13.448Z,66.18
2019-04-27T01:59:24.317Z,66.09
2019-04-27T02:01:41.300Z,65.97
2019-04-27T02:04:09.152Z,65.83
2019-04-27T02:06:21.420Z,65.42
2019-04-27T02:08:36.636Z,65.02
2019-04-27T02:10:50.239Z,64.75
2019-04-27T02:13:00.497Z,64.55
2019-04-27T02:15:12.464Z,64.16
2019-04-27T02:17:29.742Z,64.29
2019-04-27T02:19:39.342Z,64.20
2019-04-27T02:21:55.077Z,63.89
2019-04-27T02:24:05.481Z,63.92
2019-04-27T02:26:16.791Z,63.90
2019-04-27T02:28:40.518Z,66.16
2019-04-27T02:31:02.047Z,65.72
2019-04-27T02:33:20.311Z,65.19
2019-04-27T02:35:30.142Z,64.73
2019-04-27T02:37:40.303Z,64.76
2019-04-27T02:39:50.325Z,64.62
2019-04-27T02:42:02.176Z,64.60
2019-04-27T02:44:24.910Z,64.60
2019-04-27T02:46:39.592Z,64.44
2019-04-27T02:48:57.732Z,64.11
2019-04-27T02:51:11.284Z,63.74
2019-04-27T02:53:33.219Z,63.67
2019-04-27T02:55:43.921Z,64.31
2019-04-27T02:57:53.482Z,64.39
2019-04-27T03:00:03.693Z,64.54
2019-04-27T03:02:36.608Z,64.67
2019-04-27T03:04:46.784Z,64.98
2019-04-27T03:07:00.366Z,65.03
2019-04-27T03:09:10.607Z,65.05
2019-04-27T03:11:23.462Z,65.26
2019-04-27T03:13:33.603Z,65.25
2019-04-27T03:15:53.869Z,65.37
2019-04-27T03:18:19.424Z,65.87
2019-04-27T03:20:32.948Z,66.32
2019-04-27T03:22:46.783Z,66.17
2019-04-27T03:25:14.921Z,66.80
2019-04-27T03:27:30.416Z,66.61
2019-04-27T03:29:42.370Z,66.25
2019-04-27T03:31:54.616Z,66.00
2019-04-27T03:34:05.939Z,65.48
2019-04-27T03:36:21.436Z,65.04
2019-04-27T03:38:30.591Z,64.83
2019-04-27T03:40:41.939Z,64.66
2019-04-27T03:42:53.739Z,64.04
2019-04-27T03:45:10.433Z,63.66
2019-04-27T03:47:24.052Z,63.42
2019-04-27T03:49:38.721Z,63.35
2019-04-27T03:51:55.408Z,63.44
2019-04-27T03:54:21.554Z,63.32
2019-04-27T03:56:32.834Z,63.92
2019-04-27T03:58:44.497Z,63.76
2019-04-27T04:00:55.288Z,64.12
2019-04-27T04:03:06.532Z,64.77
2019-04-27T04:05:19.652Z,64.39
2019-04-27T04:07:30.270Z,63.96
2019-04-27T04:09:44.317Z,64.87
2019-04-27T04:12:02.319Z,64.09
2019-04-27T04:14:20.133Z,64.33
2019-04-27T04:16:40.214Z,63.70
2019-04-27T04:19:00.389Z,64.04
2019-04-27T04:21:09.677Z,64.36
2019-04-27T04:23:20.621Z,64.49
2019-04-27T04:25:35.667Z,64.42
2019-04-27T04:27:50.677Z,64.22
2019-04-27T04:30:03.219Z,65.10
2019-04-27T04:32:12.941Z,64.68
2019-04-27T04:34:25.422Z,63.88
2019-04-27T04:36:35.440Z,65.02
2019-04-27T04:38:47.140Z,65.24
2019-04-27T04:41:01.888Z,64.31
2019-04-27T04:43:19.934Z,64.10
2019-04-27T04:45:31.810Z,64.83
2019-04-27T04:47:46.370Z,64.73
2019-04-27T04:50:10.224Z,65.37
2019-04-27T04:52:10.503Z,65.01
2019-04-27T04:54:24.809Z,64.09
2019-04-27T04:56:39.753Z,65.31
2019-04-27T04:58:53.233Z,64.94
2019-04-27T05:01:12.275Z,64.77
2019-04-27T05:03:15.926Z,64.44
2019-04-27T05:05:27.183Z,64.12
2019-04-27T05:07:38.760Z,64.03
2019-04-27T05:09:50.022Z,64.57
2019-04-27T05:12:00.677Z,64.15
2019-04-27T05:14:10.282Z,63.84
2019-04-27T05:16:21.695Z,64.53
2019-04-27T05:18:31.458Z,65.31
2019-04-27T05:20:46.220Z,65.87
2019-04-27T05:22:59.419Z,65.62
2019-04-27T05:25:10.975Z,66.01
2019-04-27T05:27:28.931Z,66.13
2019-04-27T05:29:39.044Z,66.13
2019-04-27T05:31:50.077Z,67.12
2019-04-27T05:33:59.918Z,67.38
2019-04-27T05:36:09.476Z,67.21
2019-04-27T05:38:22.057Z,66.32
2019-04-27T05:40:32.587Z,66.83
2019-04-27T05:42:43.434Z,66.06
2019-04-27T05:45:24.450Z,66.96
2019-04-27T05:47:43.361Z,66.11
2019-04-27T05:49:55.585Z,66.82
2019-04-27T05:52:14.460Z,66.83
2019-04-27T05:54:22.546Z,65.89
2019-04-27T05:56:38.998Z,65.13
2019-04-27T05:58:53.375Z,65.18
2019-04-27T06:01:03.471Z,65.53
2019-04-27T06:03:13.646Z,65.52
2019-04-27T06:05:24.143Z,65.39
2019-04-27T06:07:35.699Z,65.16
2019-04-27T06:09:49.274Z,65.00
2019-04-27T06:11:59.647Z,65.53
2019-04-27T06:14:09.768Z,64.84
2019-04-27T06:16:24.059Z,65.40
2019-04-27T06:18:33.573Z,64.66
2019-04-27T06:20:54.819Z,65.02
2019-04-27T06:22:54.849Z,65.43
2019-04-27T06:25:05.734Z,64.87
2019-04-27T06:27:15.556Z,65.03
2019-04-27T06:29:24.840Z,66.65
2019-04-27T06:31:34.915Z,67.29
2019-04-27T06:33:44.491Z,66.37
2019-04-27T06:35:55.158Z,66.90
2019-04-27T06:38:04.955Z,66.58
2019-04-27T06:40:16.526Z,66.55
2019-04-27T06:42:26.314Z,67.36
2019-04-27T06:44:36.313Z,67.34
2019-04-27T06:46:49.015Z,68.04
2019-04-27T06:48:59.396Z,68.64
2019-04-27T06:51:10.890Z,67.79
2019-04-27T06:53:23.523Z,68.89
2019-04-27T06:55:33.606Z,67.67
2019-04-27T06:57:43.186Z,67.72
2019-04-27T06:59:53.966Z,68.05
2019-04-27T07:02:06.446Z,67.87
2019-04-27T07:04:17.128Z,68.34
2019-04-27T07:06:28.603Z,69.47
2019-04-27T07:08:40.145Z,69.17
2019-04-27T07:10:49.580Z,70.19
2019-04-27T07:12:59.816Z,69.12
2019-04-27T07:15:15.393Z,67.94
2019-04-27T07:17:22.633Z,67.19
2019-04-27T07:19:37.125Z,67.33
2019-04-27T07:21:49.806Z,67.93
2019-04-27T07:24:03.176Z,67.79
2019-04-27T07:26:12.375Z,67.97
2019-04-27T07:28:21.837Z,67.57
2019-04-27T07:30:32.085Z,68.84
2019-04-27T07:32:42.369Z,68.96
2019-04-27T07:34:51.345Z,69.34
2019-04-27T07:37:00.539Z,69.90
2019-04-27T07:39:11.605Z,70.86
2019-04-27T07:41:22.516Z,71.00
2019-04-27T07:43:43.678Z,71.48
2019-04-27T07:45:53.536Z,72.09
2019-04-27T07:48:09.146Z,71.44
2019-04-27T07:50:22.402Z,73.16
2019-04-27T07:52:32.747Z,72.10
2019-04-27T07:54:45.809Z,72.46
2019-04-27T07:56:56.177Z,72.42
2019-04-27T07:59:10.549Z,72.20
2019-04-27T08:01:20.036Z,70.24
2019-04-27T08:03:31.611Z,69.33
2019-04-27T08:05:42.198Z,69.39
2019-04-27T08:07:52.391Z,68.42
2019-04-27T08:10:02.336Z,68.57
2019-04-27T08:12:12.965Z,67.61
2019-04-27T08:14:23.304Z,67.78
2019-04-27T08:16:36.433Z,66.80
2019-04-27T08:18:51.542Z,65.86
2019-04-27T08:21:02.762Z,65.67
2019-04-27T08:23:14.168Z,65.86
2019-04-27T08:25:25.878Z,65.45
2019-04-27T08:27:41.741Z,64.62
2019-04-27T08:30:00.736Z,64.17
2019-04-27T08:32:19.601Z,64.58
2019-04-27T08:34:37.517Z,64.36
2019-04-27T08:36:47.879Z,63.56
2019-04-27T08:38:59.783Z,63.44
2019-04-27T08:41:12.969Z,64.73
2019-04-27T08:43:23.716Z,64.96
2019-04-27T08:45:34.909Z,64.56
2019-04-27T08:47:49.498Z,64.01
2019-04-27T08:49:59.253Z,63.25
2019-04-27T08:52:10.833Z,64.04
2019-04-27T08:54:22.292Z,63.06
2019-04-27T08:56:32.219Z,63.00
2019-04-27T08:58:42.274Z,62.98
2019-04-27T09:00:52.575Z,62.71
2019-04-27T09:03:03.687Z,62.60
2019-04-27T09:05:13.416Z,63.17
2019-04-27T09:07:39.608Z,63.70
2019-04-27T09:09:49.901Z,63.80
2019-04-27T09:11:59.598Z,64.23
2019-04-27T09:14:13.437Z,63.87
2019-04-27T09:16:30.775Z,64.31
2019-04-27T09:18:41.085Z,64.00
2019-04-27T09:20:58.772Z,63.51
2019-04-27T09:23:09.728Z,63.23
2019-04-27T09:25:19.362Z,64.07
2019-04-27T09:27:29.634Z,64.10
2019-04-27T09:29:40.685Z,64.24
2019-04-27T09:31:56.238Z,65.38
2019-04-27T09:34:08.361Z,65.34
2019-04-27T09:36:17.883Z,65.25
2019-04-27T09:38:29.754Z,66.33
2019-04-27T09:40:38.997Z,66.06
2019-04-27T09:42:48.908Z,65.47
2019-04-27T09:44:58.382Z,65.93
2019-04-27T09:47:10.433Z,65.69
2019-04-27T09:49:26.357Z,65.70
2019-04-27T09:51:38.634Z,66.58
2019-04-27T09:53:49.568Z,66.90
2019-04-27T09:56:05.726Z,67.32
2019-04-27T09:58:19.277Z,66.03
2019-04-27T10:00:51.098Z,65.76
2019-04-27T10:06:29.945Z,65.69
2019-04-27T10:11:19.659Z,65.80
2019-04-27T10:13:30.159Z,65.44
2019-04-27T10:15:39.525Z,65.71
2019-04-27T10:17:48.635Z,65.96
2019-04-27T10:19:57.929Z,65.61
2019-04-27T10:22:06.874Z,65.72
2019-04-27T10:24:18.581Z,66.11
2019-04-27T10:26:28.142Z,67.37
2019-04-27T10:28:37.325Z,66.22
2019-04-27T10:30:45.812Z,66.71
2019-04-27T10:32:54.053Z,66.44
2019-04-27T10:35:01.949Z,65.93
2019-04-27T10:37:23.793Z,66.24
2019-04-27T10:39:43.018Z,65.82
2019-04-27T10:41:53.202Z,65.51
2019-04-27T10:44:01.423Z,65.76
2019-04-27T10:46:09.708Z,65.75
2019-04-27T10:48:18.119Z,65.63
2019-04-27T10:50:26.677Z,65.10
2019-04-27T10:52:34.854Z,66.23
2019-04-27T10:54:43.947Z,66.08
2019-04-27T10:56:52.199Z,66.20
2019-04-27T10:59:00.685Z,65.03
2019-04-27T11:03:55.445Z,65.79
2019-04-27T11:06:26.166Z,66.57
2019-04-27T11:08:34.644Z,65.83
2019-04-27T11:10:43.144Z,65.40
2019-04-27T11:12:51.538Z,65.08
2019-04-27T11:15:00.380Z,65.17
2019-04-27T11:17:10.616Z,65.91
2019-04-27T11:19:19.887Z,66.47
2019-04-27T11:21:27.790Z,65.09
2019-04-27T11:23:35.967Z,64.26
2019-04-27T11:28:19.716Z,65.24
2019-04-27T11:30:30.344Z,66.12
2019-04-27T11:32:38.273Z,66.61
2019-04-27T11:35:05.743Z,65.64
2019-04-27T11:37:15.602Z,66.94
2019-04-27T11:39:25.939Z,66.38
2019-04-27T11:41:33.777Z,66.58
2019-04-27T11:43:41.844Z,67.07
2019-04-27T11:45:49.809Z,66.80
2019-04-27T11:47:57.701Z,65.89
2019-04-27T11:50:08.303Z,65.97
2019-04-27T11:52:16.311Z,65.95
2019-04-27T11:54:25.563Z,65.55
2019-04-27T11:56:36.195Z,66.17
2019-04-27T11:58:44.528Z,66.03
2019-04-27T12:00:52.500Z,65.87
2019-04-27T12:03:00.423Z,65.65
2019-04-27T12:05:09.147Z,65.54
2019-04-27T12:07:16.950Z,65.78
2019-04-27T12:09:24.764Z,65.72
2019-04-27T12:11:32.555Z,66.02
2019-04-27T12:13:40.349Z,66.56
2019-04-27T12:15:48.247Z,66.11
2019-04-27T12:17:57.502Z,66.15
2019-04-27T12:20:10.479Z,65.93
2019-04-27T12:22:18.549Z,66.41
2019-04-27T12:24:26.822Z,66.66
2019-04-27T12:26:39.561Z,67.03
2019-04-27T12:28:51.860Z,67.22
2019-04-27T12:31:01.300Z,67.27
2019-04-27T12:33:09.630Z,66.12
2019-04-27T12:35:17.570Z,66.75
2019-04-27T12:37:26.834Z,66.90
2019-04-27T12:39:34.686Z,66.34
2019-04-27T12:41:46.152Z,66.60
2019-04-27T12:43:55.993Z,67.71
2019-04-27T12:46:05.832Z,67.34
2019-04-27T12:48:15.096Z,66.79
2019-04-27T12:50:23.222Z,66.32
2019-04-27T12:52:31.154Z,65.66
2019-04-27T12:54:56.759Z,65.29
2019-04-27T12:57:22.663Z,64.92
2019-04-27T12:59:48.117Z,64.73
2019-04-27T13:01:56.442Z,64.97
2019-04-27T13:04:04.408Z,65.63
2019-04-27T13:06:12.301Z,65.45
2019-04-27T13:08:20.844Z,65.33
2019-04-27T13:10:28.746Z,68.06
2019-04-27T13:12:36.536Z,68.79
2019-04-27T13:14:45.755Z,69.43
2019-04-27T13:16:53.842Z,68.45
2019-04-27T13:19:01.735Z,68.60
2019-04-27T13:21:09.559Z,69.53
2019-04-27T13:23:17.452Z,68.69
2019-04-27T13:25:25.478Z,67.75
2019-04-27T13:27:33.789Z,67.10
2019-04-27T13:29:42.798Z,68.39
2019-04-27T13:31:50.766Z,69.08
2019-04-27T13:33:58.775Z,69.21
2019-04-27T13:36:07.625Z,69.02
2019-04-27T13:38:18.062Z,68.67
2019-04-27T13:40:26.098Z,68.15
2019-04-27T13:42:41.587Z,67.79
2019-04-27T13:44:49.810Z,67.67
2019-04-27T13:47:17.077Z,66.99
2019-04-27T13:49:30.826Z,67.71
2019-04-27T13:51:40.361Z,68.01
2019-04-27T13:53:48.176Z,68.98
2019-04-27T13:55:56.896Z,68.50
2019-04-27T13:58:05.721Z,70.51
2019-04-27T14:00:14.808Z,71.45
2019-04-27T14:02:24.251Z,72.00
2019-04-27T14:04:32.388Z,71.74
2019-04-27T14:06:42.004Z,71.88
2019-04-27T14:08:49.970Z,69.66
2019-04-27T14:11:01.078Z,70.18
2019-04-27T14:13:10.912Z,70.24
2019-04-27T14:15:18.712Z,70.91
2019-04-27T14:17:26.640Z,70.90
2019-04-27T14:19:35.259Z,71.57
2019-04-27T14:21:43.674Z,70.90
2019-04-27T14:23:51.679Z,70.58
2019-04-27T14:26:00.412Z,71.26
2019-04-27T14:28:11.150Z,71.07
2019-04-27T14:30:19.687Z,71.12
2019-04-27T14:32:28.737Z,71.69
2019-04-27T14:34:36.825Z,71.91
2019-04-27T14:36:45.101Z,71.87
2019-04-27T14:38:53.278Z,71.43
2019-04-27T14:41:01.380Z,71.41
2019-04-27T14:43:09.445Z,71.22
2019-04-27T14:45:18.911Z,70.89
2019-04-27T14:47:29.929Z,70.52
2019-04-27T14:49:39.084Z,70.11
2019-04-27T14:51:48.659Z,70.14
2019-04-27T14:54:01.901Z,71.37
2019-04-27T14:56:11.507Z,70.93
2019-04-27T14:58:20.108Z,69.99
2019-04-27T15:00:28.783Z,69.05
2019-04-27T15:02:40.832Z,68.27
2019-04-27T15:04:49.435Z,69.06
2019-04-27T15:07:00.749Z,69.74
2019-04-27T15:09:13.403Z,68.82
2019-04-27T15:11:19.776Z,68.17
2019-04-27T15:13:28.669Z,68.28
2019-04-27T15:15:38.233Z,69.47
2019-04-27T15:17:47.192Z,70.51
2019-04-27T15:20:01.542Z,69.67
2019-04-27T15:22:12.702Z,69.74
2019-04-27T15:24:21.996Z,70.22
2019-04-27T15:26:30.857Z,70.33
2019-04-27T15:28:44.707Z,71.16
2019-04-27T15:30:59.559Z,72.62
2019-04-27T15:33:19.086Z,70.21
2019-04-27T15:35:40.495Z,70.13
2019-04-27T15:37:57.043Z,70.14
2019-04-27T15:40:24.897Z,70.31
2019-04-27T15:42:34.914Z,70.72
2019-04-27T15:44:44.213Z,70.14
2019-04-27T15:46:53.688Z,70.75
2019-04-27T15:49:03.115Z,70.41
2019-04-27T15:51:18.351Z,70.51
2019-04-27T15:53:25.827Z,70.42
2019-04-27T15:55:36.981Z,70.96
2019-04-27T15:57:46.899Z,71.76
2019-04-27T15:59:58.457Z,72.50
2019-04-27T16:02:11.809Z,73.03
2019-04-27T16:04:17.879Z,73.07
2019-04-27T16:06:28.215Z,71.92
2019-04-27T16:08:38.248Z,72.17
2019-04-27T16:10:48.738Z,71.96
2019-04-27T16:17:21.355Z,71.98
2019-04-27T16:19:32.014Z,71.63
2019-04-27T16:21:47.808Z,71.86
2019-04-27T16:23:53.304Z,72.40
2019-04-27T16:26:05.224Z,72.78
2019-04-27T16:28:13.502Z,73.22
2019-04-27T16:30:21.768Z,71.96
2019-04-27T16:32:30.942Z,71.78
2019-04-27T16:34:41.215Z,72.55
2019-04-27T16:36:52.331Z,73.53
2019-04-27T16:39:03.749Z,73.17
2019-04-27T16:41:14.158Z,73.93
2019-04-27T16:43:23.811Z,74.34
2019-04-27T16:45:34.109Z,74.51
2019-04-27T16:47:42.388Z,74.47
2019-04-27T16:49:50.625Z,73.84
2019-04-27T16:51:59.207Z,74.47
2019-04-27T16:54:11.176Z,74.84
2019-04-27T16:56:20.498Z,74.02
2019-04-27T16:58:28.547Z,75.32
2019-04-27T17:00:40.691Z,76.05
2019-04-27T17:02:49.196Z,76.46
2019-04-27T17:04:58.619Z,75.41
2019-04-27T17:07:08.710Z,76.31
2019-04-27T17:09:16.173Z,75.66
2019-04-27T17:11:24.095Z,75.96
2019-04-27T17:13:34.273Z,76.33
2019-04-27T17:15:55.001Z,75.43
2019-04-27T17:18:24.379Z,76.49
2019-04-27T17:20:32.620Z,76.98
2019-04-27T17:22:40.442Z,76.72
2019-04-27T17:24:49.347Z,76.91
2019-04-27T17:26:59.040Z,77.17
2019-04-27T17:29:16.470Z,77.39
2019-04-27T17:31:23.013Z,77.15
2019-04-27T17:33:38.669Z,78.14
2019-04-27T17:35:46.496Z,78.32
2019-04-27T17:37:54.535Z,78.40
2019-04-27T17:40:02.347Z,77.91
2019-04-27T17:42:11.387Z,77.72
2019-04-27T17:44:23.151Z,77.06
2019-04-27T17:46:31.520Z,77.62
2019-04-27T17:48:39.601Z,77.46
2019-04-27T17:50:48.966Z,77.12
2019-04-27T17:52:59.092Z,76.59
2019-04-27T17:55:12.253Z,77.54
2019-04-27T17:57:22.237Z,78.50
2019-04-27T17:59:30.992Z,78.77
2019-04-27T18:01:39.745Z,78.36
2019-04-27T18:03:58.518Z,79.84
2019-04-27T18:05:58.186Z,80.07
2019-04-27T18:08:08.285Z,79.33
2019-04-27T18:10:21.148Z,79.07
2019-04-27T18:12:26.073Z,78.58
2019-04-27T18:14:47.845Z,78.51
2019-04-27T18:16:55.765Z,78.50
2019-04-27T18:19:11.967Z,79.55
2019-04-27T18:21:21.438Z,79.58
2019-04-27T18:23:51.868Z,79.50
2019-04-27T18:25:57.689Z,78.72
2019-04-27T18:28:14.682Z,79.53
2019-04-27T18:30:19.186Z,78.93
2019-04-27T18:32:27.740Z,78.84
2019-04-27T18:34:36.555Z,79.02
2019-04-27T18:36:44.975Z,78.63
2019-04-27T18:38:52.974Z,77.83
2019-04-27T18:41:02.980Z,77.83
2019-04-27T18:43:13.816Z,77.16
2019-04-27T18:45:21.772Z,77.58
2019-04-27T18:47:31.238Z,77.51
2019-04-27T18:49:53.842Z,78.23
2019-04-27T18:52:19.920Z,78.38
2019-04-27T18:54:28.783Z,77.52
2019-04-27T18:56:38.428Z,77.70
2019-04-27T18:58:47.634Z,77.98
2019-04-27T19:00:55.791Z,79.82
2019-04-27T19:03:05.018Z,80.23
2019-04-27T19:05:13.314Z,81.38
2019-04-27T19:07:21.126Z,81.31
2019-04-27T19:09:29.016Z,79.88
2019-04-27T19:11:38.272Z,80.33
2019-04-27T19:13:46.510Z,81.20
2019-04-27T19:15:54.470Z,80.92
2019-04-27T19:18:03.536Z,80.35
2019-04-27T19:20:12.704Z,80.56
2019-04-27T19:22:20.566Z,80.62
2019-04-27T19:24:28.530Z,80.80
2019-04-27T19:26:54.967Z,80.45
2019-04-27T19:29:14.802Z,80.71
2019-04-27T19:31:24.373Z,81.37
2019-04-27T19:33:32.281Z,81.21
2019-04-27T19:35:40.178Z,81.65
2019-04-27T19:37:48.630Z,81.21
2019-04-27T19:39:58.249Z,80.75
2019-04-27T19:42:06.238Z,81.40
2019-04-27T19:44:14.109Z,81.54
2019-04-27T19:46:22.030Z,81.21
2019-04-27T19:48:29.920Z,81.28
2019-04-27T19:50:39.281Z,81.69
2019-04-27T19:52:47.190Z,81.69
2019-04-27T19:54:55.007Z,80.75
2019-04-27T19:57:03.013Z,79.83
2019-04-27T19:59:12.587Z,80.85
2019-04-27T20:01:25.217Z,80.34
2019-04-27T20:03:48.242Z,81.21
2019-04-27T20:05:56.482Z,80.21
2019-04-27T20:08:06.015Z,79.33
2019-04-27T20:10:14.437Z,80.12
2019-04-27T20:12:22.266Z,79.85
2019-04-27T20:14:32.148Z,79.82
2019-04-27T20:16:41.749Z,78.83
2019-04-27T20:18:51.630Z,79.74
2019-04-27T20:21:01.042Z,79.37
2019-04-27T20:23:09.226Z,79.92
2019-04-27T20:25:17.412Z,79.41
2019-04-27T20:27:25.675Z,80.01
2019-04-27T20:29:33.876Z,79.78
2019-04-27T20:31:43.059Z,80.21
2019-04-27T20:33:53.764Z,80.63
2019-04-27T20:36:01.355Z,79.88
2019-04-27T20:38:11.150Z,79.53
2019-04-27T20:40:21.604Z,79.29
2019-04-27T20:42:31.293Z,79.24
2019-04-27T20:44:41.392Z,79.52
2019-04-27T20:46:51.364Z,79.31
2019-04-27T20:49:01.265Z,80.11
2019-04-27T20:51:11.153Z,79.23
2019-04-27T20:53:21.042Z,79.06
2019-04-27T20:55:29.490Z,79.02
2019-04-27T20:57:37.710Z,77.66
2019-04-27T20:59:45.804Z,78.17
2019-04-27T21:01:53.963Z,77.76
2019-04-27T21:04:03.931Z,77.30
2019-04-27T21:06:23.015Z,76.93
2019-04-27T21:08:32.449Z,76.76
2019-04-27T21:10:41.297Z,76.85
2019-04-27T21:12:49.741Z,77.05
2019-04-27T21:14:57.732Z,77.46
2019-04-27T21:17:05.850Z,77.06
2019-04-27T21:19:14.133Z,76.10
2019-04-27T21:21:22.221Z,75.58
2019-04-27T21:23:31.194Z,75.68
2019-04-27T21:25:42.075Z,75.04
2019-04-27T21:27:51.316Z,74.89
2019-04-27T21:29:59.603Z,74.61
2019-04-27T21:32:08.014Z,74.37
2019-04-27T21:34:15.928Z,74.45
2019-04-27T21:36:23.859Z,74.68
2019-04-27T21:38:31.673Z,75.66
2019-04-27T21:40:40.854Z,75.18
2019-04-27T21:42:51.066Z,75.55
2019-04-27T21:45:01.264Z,75.43
2019-04-27T21:47:11.212Z,75.60
2019-04-27T21:49:21.235Z,76.65
2019-04-27T21:51:30.097Z,76.69
2019-04-27T21:53:46.768Z,76.94
2019-04-27T21:56:06.740Z,76.88
2019-04-27T21:58:28.379Z,76.28
2019-04-27T22:00:42.738Z,76.78
2019-04-27T22:02:52.699Z,76.68
2019-04-27T22:05:01.118Z,76.25
2019-04-27T22:07:11.492Z,75.76
2019-04-27T22:09:20.220Z,75.10
2019-04-27T22:11:28.222Z,74.62
2019-04-27T22:13:36.212Z,74.83
2019-04-27T22:15:44.028Z,74.78
2019-04-27T22:17:52.363Z,74.57
2019-04-27T22:20:01.794Z,74.46
2019-04-27T22:22:13.243Z,76.32
2019-04-27T22:24:29.471Z,76.53
2019-04-27T22:26:37.530Z,76.75
2019-04-27T22:28:49.229Z,76.50
2019-04-27T22:30:55.526Z,76.81
2019-04-27T22:33:03.714Z,77.50
2019-04-27T22:35:13.222Z,77.27
2019-04-27T22:37:21.412Z,77.35
2019-04-27T22:39:31.090Z,77.34
2019-04-27T22:41:41.675Z,77.10
2019-04-27T22:44:07.529Z,77.59
2019-04-27T22:46:33.673Z,78.43
2019-04-27T22:48:41.647Z,78.00
2019-04-27T22:50:51.367Z,77.39
2019-04-27T22:52:59.302Z,77.23
2019-04-27T22:55:08.499Z,76.84
2019-04-27T22:57:18.415Z,77.01
2019-04-27T22:59:45.211Z,78.41
2019-04-27T23:01:55.751Z,78.42
2019-04-27T23:04:05.353Z,78.00
2019-04-27T23:06:14.224Z,78.68
2019-04-27T23:08:23.201Z,78.13
2019-04-27T23:10:32.638Z,77.40
2019-04-27T23:12:41.976Z,77.21
2019-04-27T23:14:50.299Z,76.55
2019-04-27T23:17:00.811Z,76.41
2019-04-27T23:19:10.885Z,76.71
2019-04-27T23:21:20.785Z,77.61
2019-04-27T23:23:31.025Z,77.28
2019-04-27T23:25:42.378Z,77.06
2019-04-27T23:27:51.278Z,77.33
2019-04-27T23:29:59.210Z,78.01
2019-04-27T23:32:11.864Z,78.82
2019-04-27T23:34:21.657Z,78.72
2019-04-27T23:36:31.720Z,79.21
2019-04-27T23:38:40.808Z,79.35
2019-04-27T23:40:49.396Z,79.86
2019-04-27T23:42:57.492Z,79.72
2019-04-27T23:45:08.055Z,79.68
2019-04-27T23:47:16.233Z,78.96
2019-04-27T23:49:24.330Z,78.97
2019-04-27T23:51:32.186Z,78.09
2019-04-27T23:53:41.774Z,78.30
2019-04-27T23:55:50.283Z,78.68
2019-04-27T23:57:59.456Z,78.80
